sensor_id;sensor_type;location;lat;lon;timestamp;temperature;humidity
12839;DHT22;6486;51.034;5.262;2024-02-21T00:00:40;19.10;49.00
12839;DHT22;6486;51.034;5.262;2024-02-21T00:03:07;19.10;49.00
12839;DHT22;6486;51.034;5.262;2024-02-21T00:05:32;19.10;49.00
12839;DHT22;6486;51.034;5.262;2024-02-21T00:07:59;19.10;49.00
12839;DHT22;6486;51.034;5.262;2024-02-21T00:10:25;19.20;49.10
12839;DHT22;6486;51.034;5.262;2024-02-21T00:12:51;19.10;49.00
12839;DHT22;6486;51.034;5.262;2024-02-21T00:15:17;19.20;49.10
12839;DHT22;6486;51.034;5.262;2024-02-21T00:17:44;19.10;49.00
12839;DHT22;6486;51.034;5.262;2024-02-21T00:20:10;19.10;49.00
12839;DHT22;6486;51.034;5.262;2024-02-21T00:22:36;19.10;49.00
12839;DHT22;6486;51.034;5.262;2024-02-21T00:25:02;19.10;49.10
12839;DHT22;6486;51.034;5.262;2024-02-21T00:27:28;19.10;49.00
12839;DHT22;6486;51.034;5.262;2024-02-21T00:29:53;19.10;49.00
12839;DHT22;6486;51.034;5.262;2024-02-21T00:32:19;19.10;49.10
12839;DHT22;6486;51.034;5.262;2024-02-21T00:34:45;19.10;49.10
12839;DHT22;6486;51.034;5.262;2024-02-21T00:37:10;19.10;49.10
12839;DHT22;6486;51.034;5.262;2024-02-21T00:39:36;19.10;49.10
12839;DHT22;6486;51.034;5.262;2024-02-21T00:42:02;19.10;49.10
12839;DHT22;6486;51.034;5.262;2024-02-21T00:44:28;19.10;49.10
12839;DHT22;6486;51.034;5.262;2024-02-21T00:46:54;19.10;49.10
12839;DHT22;6486;51.034;5.262;2024-02-21T00:49:19;19.10;49.10
12839;DHT22;6486;51.034;5.262;2024-02-21T00:51:45;19.10;49.10
12839;DHT22;6486;51.034;5.262;2024-02-21T00:54:11;19.10;49.10
12839;DHT22;6486;51.034;5.262;2024-02-21T00:56:36;19.10;49.10
12839;DHT22;6486;51.034;5.262;2024-02-21T00:59:02;19.10;49.10
12839;DHT22;6486;51.034;5.262;2024-02-21T01:01:28;19.10;49.10
12839;DHT22;6486;51.034;5.262;2024-02-21T01:03:53;19.10;49.10
12839;DHT22;6486;51.034;5.262;2024-02-21T01:06:22;19.10;49.10
12839;DHT22;6486;51.034;5.262;2024-02-21T01:08:48;19.10;49.10
12839;DHT22;6486;51.034;5.262;2024-02-21T01:11:14;19.10;49.10
12839;DHT22;6486;51.034;5.262;2024-02-21T01:13:40;19.10;49.20
12839;DHT22;6486;51.034;5.262;2024-02-21T01:16:06;19.10;49.20
12839;DHT22;6486;51.034;5.262;2024-02-21T01:18:38;19.10;49.10
12839;DHT22;6486;51.034;5.262;2024-02-21T01:21:07;19.10;49.10
12839;DHT22;6486;51.034;5.262;2024-02-21T01:23:37;19.10;49.10
12839;DHT22;6486;51.034;5.262;2024-02-21T01:26:05;19.10;49.10
12839;DHT22;6486;51.034;5.262;2024-02-21T01:28:34;19.20;49.20
12839;DHT22;6486;51.034;5.262;2024-02-21T01:31:00;19.20;49.20
12839;DHT22;6486;51.034;5.262;2024-02-21T01:33:26;19.20;49.20
12839;DHT22;6486;51.034;5.262;2024-02-21T01:35:52;19.20;49.20
12839;DHT22;6486;51.034;5.262;2024-02-21T01:38:18;19.20;49.10
12839;DHT22;6486;51.034;5.262;2024-02-21T01:40:43;19.20;49.10
12839;DHT22;6486;51.034;5.262;2024-02-21T01:43:16;19.20;49.10
12839;DHT22;6486;51.034;5.262;2024-02-21T01:45:43;19.20;49.10
12839;DHT22;6486;51.034;5.262;2024-02-21T01:48:11;19.20;49.10
12839;DHT22;6486;51.034;5.262;2024-02-21T01:50:37;19.20;49.10
12839;DHT22;6486;51.034;5.262;2024-02-21T01:53:03;19.20;49.10
12839;DHT22;6486;51.034;5.262;2024-02-21T01:55:28;19.20;49.10
12839;DHT22;6486;51.034;5.262;2024-02-21T01:57:54;19.20;49.10
12839;DHT22;6486;51.034;5.262;2024-02-21T02:00:20;19.20;49.10
12839;DHT22;6486;51.034;5.262;2024-02-21T02:02:46;19.20;49.10
12839;DHT22;6486;51.034;5.262;2024-02-21T02:05:11;19.20;49.10
12839;DHT22;6486;51.034;5.262;2024-02-21T02:07:37;19.20;49.10
12839;DHT22;6486;51.034;5.262;2024-02-21T02:10:04;19.20;49.10
12839;DHT22;6486;51.034;5.262;2024-02-21T02:12:30;19.20;49.20
12839;DHT22;6486;51.034;5.262;2024-02-21T02:15:02;19.20;49.10
12839;DHT22;6486;51.034;5.262;2024-02-21T02:17:30;19.20;49.10
12839;DHT22;6486;51.034;5.262;2024-02-21T02:19:56;19.20;49.10
12839;DHT22;6486;51.034;5.262;2024-02-21T02:22:25;19.20;49.10
12839;DHT22;6486;51.034;5.262;2024-02-21T02:24:53;19.20;49.10
12839;DHT22;6486;51.034;5.262;2024-02-21T02:27:19;19.20;49.10
12839;DHT22;6486;51.034;5.262;2024-02-21T02:29:44;19.20;49.10
12839;DHT22;6486;51.034;5.262;2024-02-21T02:32:10;19.20;49.10
12839;DHT22;6486;51.034;5.262;2024-02-21T02:34:36;19.10;49.10
12839;DHT22;6486;51.034;5.262;2024-02-21T02:37:02;19.20;49.10
12839;DHT22;6486;51.034;5.262;2024-02-21T02:39:27;19.10;49.10
12839;DHT22;6486;51.034;5.262;2024-02-21T02:41:53;19.20;49.10
12839;DHT22;6486;51.034;5.262;2024-02-21T02:44:19;19.10;49.10
12839;DHT22;6486;51.034;5.262;2024-02-21T02:46:44;19.10;49.10
12839;DHT22;6486;51.034;5.262;2024-02-21T02:49:10;19.10;49.00
12839;DHT22;6486;51.034;5.262;2024-02-21T02:51:36;19.10;49.00
12839;DHT22;6486;51.034;5.262;2024-02-21T02:54:02;19.10;49.10
12839;DHT22;6486;51.034;5.262;2024-02-21T02:56:28;19.10;49.10
12839;DHT22;6486;51.034;5.262;2024-02-21T02:58:54;19.10;49.10
12839;DHT22;6486;51.034;5.262;2024-02-21T03:01:19;19.10;49.10
12839;DHT22;6486;51.034;5.262;2024-02-21T03:03:45;19.10;49.00
12839;DHT22;6486;51.034;5.262;2024-02-21T03:06:12;19.20;49.10
12839;DHT22;6486;51.034;5.262;2024-02-21T03:08:38;19.20;49.10
12839;DHT22;6486;51.034;5.262;2024-02-21T03:11:05;19.20;49.10
12839;DHT22;6486;51.034;5.262;2024-02-21T03:13:31;19.20;49.10
12839;DHT22;6486;51.034;5.262;2024-02-21T03:15:56;19.20;49.00
12839;DHT22;6486;51.034;5.262;2024-02-21T03:18:22;19.20;49.00
12839;DHT22;6486;51.034;5.262;2024-02-21T03:20:47;19.20;49.00
12839;DHT22;6486;51.034;5.262;2024-02-21T03:23:13;19.20;49.00
12839;DHT22;6486;51.034;5.262;2024-02-21T03:25:39;19.20;49.00
12839;DHT22;6486;51.034;5.262;2024-02-21T03:28:04;19.20;49.00
12839;DHT22;6486;51.034;5.262;2024-02-21T03:30:30;19.20;49.00
12839;DHT22;6486;51.034;5.262;2024-02-21T03:32:56;19.20;49.00
12839;DHT22;6486;51.034;5.262;2024-02-21T03:35:21;19.20;49.00
12839;DHT22;6486;51.034;5.262;2024-02-21T03:37:47;19.20;49.00
12839;DHT22;6486;51.034;5.262;2024-02-21T03:40:13;19.20;48.90
12839;DHT22;6486;51.034;5.262;2024-02-21T03:42:38;19.20;49.00
12839;DHT22;6486;51.034;5.262;2024-02-21T03:45:04;19.20;49.00
12839;DHT22;6486;51.034;5.262;2024-02-21T03:47:30;19.20;48.90
12839;DHT22;6486;51.034;5.262;2024-02-21T03:49:56;19.20;49.00
12839;DHT22;6486;51.034;5.262;2024-02-21T03:52:22;19.20;48.90
12839;DHT22;6486;51.034;5.262;2024-02-21T03:54:47;19.20;49.00
12839;DHT22;6486;51.034;5.262;2024-02-21T03:57:13;19.20;48.90
12839;DHT22;6486;51.034;5.262;2024-02-21T03:59:39;19.20;48.90
12839;DHT22;6486;51.034;5.262;2024-02-21T04:02:05;19.20;48.90
12839;DHT22;6486;51.034;5.262;2024-02-21T04:04:36;19.20;49.00
12839;DHT22;6486;51.034;5.262;2024-02-21T04:07:03;19.20;49.00
12839;DHT22;6486;51.034;5.262;2024-02-21T04:09:32;19.20;49.60
12839;DHT22;6486;51.034;5.262;2024-02-21T04:11:59;19.20;48.90
12839;DHT22;6486;51.034;5.262;2024-02-21T04:14:25;19.20;49.00
12839;DHT22;6486;51.034;5.262;2024-02-21T04:16:51;19.20;48.90
12839;DHT22;6486;51.034;5.262;2024-02-21T04:19:16;19.20;49.00
12839;DHT22;6486;51.034;5.262;2024-02-21T04:21:42;19.20;49.00
12839;DHT22;6486;51.034;5.262;2024-02-21T04:24:08;19.20;49.00
12839;DHT22;6486;51.034;5.262;2024-02-21T04:26:34;19.20;49.00
12839;DHT22;6486;51.034;5.262;2024-02-21T04:29:00;19.20;49.00
12839;DHT22;6486;51.034;5.262;2024-02-21T04:31:25;19.20;49.00
12839;DHT22;6486;51.034;5.262;2024-02-21T04:33:51;19.20;49.00
12839;DHT22;6486;51.034;5.262;2024-02-21T04:36:17;19.20;49.00
12839;DHT22;6486;51.034;5.262;2024-02-21T04:38:42;19.10;48.90
12839;DHT22;6486;51.034;5.262;2024-02-21T04:41:08;19.20;49.00
12839;DHT22;6486;51.034;5.262;2024-02-21T04:43:34;19.20;49.00
12839;DHT22;6486;51.034;5.262;2024-02-21T04:46:00;19.20;48.90
12839;DHT22;6486;51.034;5.262;2024-02-21T04:48:26;19.20;48.90
12839;DHT22;6486;51.034;5.262;2024-02-21T04:50:51;19.10;48.90
12839;DHT22;6486;51.034;5.262;2024-02-21T04:53:17;19.10;48.80
12839;DHT22;6486;51.034;5.262;2024-02-21T04:55:43;19.20;48.90
12839;DHT22;6486;51.034;5.262;2024-02-21T04:58:08;19.20;48.90
12839;DHT22;6486;51.034;5.262;2024-02-21T05:00:34;19.20;48.90
12839;DHT22;6486;51.034;5.262;2024-02-21T05:03:00;19.20;48.90
12839;DHT22;6486;51.034;5.262;2024-02-21T05:05:25;19.20;48.80
12839;DHT22;6486;51.034;5.262;2024-02-21T05:07:51;19.20;48.80
12839;DHT22;6486;51.034;5.262;2024-02-21T05:10:17;19.20;48.80
12839;DHT22;6486;51.034;5.262;2024-02-21T05:12:43;19.20;48.80
12839;DHT22;6486;51.034;5.262;2024-02-21T05:15:09;19.20;48.80
12839;DHT22;6486;51.034;5.262;2024-02-21T05:17:35;19.20;48.80
12839;DHT22;6486;51.034;5.262;2024-02-21T05:20:01;19.20;48.80
12839;DHT22;6486;51.034;5.262;2024-02-21T05:22:26;19.30;48.90
12839;DHT22;6486;51.034;5.262;2024-02-21T05:24:52;19.30;48.90
12839;DHT22;6486;51.034;5.262;2024-02-21T05:27:18;19.20;48.80
12839;DHT22;6486;51.034;5.262;2024-02-21T05:29:43;19.30;48.90
12839;DHT22;6486;51.034;5.262;2024-02-21T05:32:09;19.30;48.80
12839;DHT22;6486;51.034;5.262;2024-02-21T05:34:35;19.20;48.70
12839;DHT22;6486;51.034;5.262;2024-02-21T05:37:01;19.30;48.80
12839;DHT22;6486;51.034;5.262;2024-02-21T05:39:26;19.20;48.70
12839;DHT22;6486;51.034;5.262;2024-02-21T05:41:54;19.30;48.80
12839;DHT22;6486;51.034;5.262;2024-02-21T05:44:20;19.20;48.80
12839;DHT22;6486;51.034;5.262;2024-02-21T05:46:47;19.20;48.70
12839;DHT22;6486;51.034;5.262;2024-02-21T05:49:13;19.30;48.80
12839;DHT22;6486;51.034;5.262;2024-02-21T05:51:38;19.20;48.80
12839;DHT22;6486;51.034;5.262;2024-02-21T05:54:04;19.20;48.80
12839;DHT22;6486;51.034;5.262;2024-02-21T05:56:30;19.20;48.80
12839;DHT22;6486;51.034;5.262;2024-02-21T05:58:55;19.20;48.70
12839;DHT22;6486;51.034;5.262;2024-02-21T06:01:22;19.20;48.80
12839;DHT22;6486;51.034;5.262;2024-02-21T06:03:47;19.20;48.80
12839;DHT22;6486;51.034;5.262;2024-02-21T06:06:13;19.20;48.80
12839;DHT22;6486;51.034;5.262;2024-02-21T06:08:40;19.20;48.80
12839;DHT22;6486;51.034;5.262;2024-02-21T06:11:06;19.20;48.80
12839;DHT22;6486;51.034;5.262;2024-02-21T06:13:31;19.20;48.80
12839;DHT22;6486;51.034;5.262;2024-02-21T06:15:57;19.20;48.80
12839;DHT22;6486;51.034;5.262;2024-02-21T06:18:23;19.20;48.80
12839;DHT22;6486;51.034;5.262;2024-02-21T06:20:48;19.20;48.80
12839;DHT22;6486;51.034;5.262;2024-02-21T06:23:16;19.20;48.80
12839;DHT22;6486;51.034;5.262;2024-02-21T06:25:42;19.20;48.80
12839;DHT22;6486;51.034;5.262;2024-02-21T06:28:08;19.20;48.80
12839;DHT22;6486;51.034;5.262;2024-02-21T06:30:34;19.20;48.80
12839;DHT22;6486;51.034;5.262;2024-02-21T06:32:59;19.20;48.80
12839;DHT22;6486;51.034;5.262;2024-02-21T06:35:26;19.10;48.70
12839;DHT22;6486;51.034;5.262;2024-02-21T06:37:52;19.20;48.80
12839;DHT22;6486;51.034;5.262;2024-02-21T06:40:20;19.20;48.80
12839;DHT22;6486;51.034;5.262;2024-02-21T06:42:46;19.20;48.80
12839;DHT22;6486;51.034;5.262;2024-02-21T06:45:11;19.20;48.80
12839;DHT22;6486;51.034;5.262;2024-02-21T06:47:37;19.20;48.70
12839;DHT22;6486;51.034;5.262;2024-02-21T06:50:03;19.20;48.70
12839;DHT22;6486;51.034;5.262;2024-02-21T06:52:29;19.20;48.70
12839;DHT22;6486;51.034;5.262;2024-02-21T06:54:54;19.20;48.70
12839;DHT22;6486;51.034;5.262;2024-02-21T06:57:20;19.20;48.60
12839;DHT22;6486;51.034;5.262;2024-02-21T06:59:45;19.20;48.60
12839;DHT22;6486;51.034;5.262;2024-02-21T07:02:11;19.20;48.60
12839;DHT22;6486;51.034;5.262;2024-02-21T07:04:37;19.30;48.70
12839;DHT22;6486;51.034;5.262;2024-02-21T07:07:02;19.30;48.70
12839;DHT22;6486;51.034;5.262;2024-02-21T07:09:28;19.30;48.70
12839;DHT22;6486;51.034;5.262;2024-02-21T07:11:58;19.30;48.70
12839;DHT22;6486;51.034;5.262;2024-02-21T07:14:23;19.20;48.60
12839;DHT22;6486;51.034;5.262;2024-02-21T07:16:49;19.30;48.70
12839;DHT22;6486;51.034;5.262;2024-02-21T07:19:15;19.30;48.60
12839;DHT22;6486;51.034;5.262;2024-02-21T07:21:40;19.30;48.70
12839;DHT22;6486;51.034;5.262;2024-02-21T07:24:09;19.30;48.70
12839;DHT22;6486;51.034;5.262;2024-02-21T07:26:35;19.30;48.60
12839;DHT22;6486;51.034;5.262;2024-02-21T07:29:00;19.20;48.50
12839;DHT22;6486;51.034;5.262;2024-02-21T07:31:26;19.30;48.60
12839;DHT22;6486;51.034;5.262;2024-02-21T07:33:52;19.20;49.20
12839;DHT22;6486;51.034;5.262;2024-02-21T07:36:28;19.30;48.70
12839;DHT22;6486;51.034;5.262;2024-02-21T07:38:55;19.20;48.60
12839;DHT22;6486;51.034;5.262;2024-02-21T07:41:21;19.20;48.60
12839;DHT22;6486;51.034;5.262;2024-02-21T07:43:47;19.20;48.60
12839;DHT22;6486;51.034;5.262;2024-02-21T07:46:14;19.20;48.60
12839;DHT22;6486;51.034;5.262;2024-02-21T07:48:40;19.20;48.60
12839;DHT22;6486;51.034;5.262;2024-02-21T07:51:06;19.20;48.60
12839;DHT22;6486;51.034;5.262;2024-02-21T07:53:32;19.20;48.60
12839;DHT22;6486;51.034;5.262;2024-02-21T07:55:57;19.20;48.60
12839;DHT22;6486;51.034;5.262;2024-02-21T07:58:23;19.20;48.60
12839;DHT22;6486;51.034;5.262;2024-02-21T08:00:48;19.20;48.60
12839;DHT22;6486;51.034;5.262;2024-02-21T08:03:14;19.20;48.60
12839;DHT22;6486;51.034;5.262;2024-02-21T08:05:43;19.20;48.60
12839;DHT22;6486;51.034;5.262;2024-02-21T08:08:09;19.20;48.60
12839;DHT22;6486;51.034;5.262;2024-02-21T08:10:34;19.20;49.20
12839;DHT22;6486;51.034;5.262;2024-02-21T08:13:00;19.20;48.60
12839;DHT22;6486;51.034;5.262;2024-02-21T08:15:26;19.20;48.70
12839;DHT22;6486;51.034;5.262;2024-02-21T08:17:55;19.20;48.60
12839;DHT22;6486;51.034;5.262;2024-02-21T08:20:25;19.20;49.30
12839;DHT22;6486;51.034;5.262;2024-02-21T08:22:50;19.20;48.70
12839;DHT22;6486;51.034;5.262;2024-02-21T08:25:16;19.20;48.70
12839;DHT22;6486;51.034;5.262;2024-02-21T08:27:41;19.20;48.70
12839;DHT22;6486;51.034;5.262;2024-02-21T08:30:07;19.10;48.60
12839;DHT22;6486;51.034;5.262;2024-02-21T08:32:33;19.10;48.60
12839;DHT22;6486;51.034;5.262;2024-02-21T08:35:01;19.10;48.60
12839;DHT22;6486;51.034;5.262;2024-02-21T08:37:30;19.10;48.60
12839;DHT22;6486;51.034;5.262;2024-02-21T08:39:55;19.10;49.30
12839;DHT22;6486;51.034;5.262;2024-02-21T08:42:21;19.10;48.60
12839;DHT22;6486;51.034;5.262;2024-02-21T08:44:47;19.10;48.60
12839;DHT22;6486;51.034;5.262;2024-02-21T08:47:12;19.10;48.70
12839;DHT22;6486;51.034;5.262;2024-02-21T08:49:38;19.10;48.60
12839;DHT22;6486;51.034;5.262;2024-02-21T08:52:04;19.10;48.70
12839;DHT22;6486;51.034;5.262;2024-02-21T08:54:31;19.10;48.70
12839;DHT22;6486;51.034;5.262;2024-02-21T08:56:58;19.10;48.70
12839;DHT22;6486;51.034;5.262;2024-02-21T08:59:23;19.10;48.70
12839;DHT22;6486;51.034;5.262;2024-02-21T09:01:51;19.10;48.70
12839;DHT22;6486;51.034;5.262;2024-02-21T09:04:17;19.10;48.70
12839;DHT22;6486;51.034;5.262;2024-02-21T09:06:43;19.10;48.70
12839;DHT22;6486;51.034;5.262;2024-02-21T09:09:10;19.10;48.70
12839;DHT22;6486;51.034;5.262;2024-02-21T09:11:36;19.00;48.60
12839;DHT22;6486;51.034;5.262;2024-02-21T09:14:02;19.10;48.70
12839;DHT22;6486;51.034;5.262;2024-02-21T09:16:32;19.10;48.70
12839;DHT22;6486;51.034;5.262;2024-02-21T09:18:58;19.10;48.70
12839;DHT22;6486;51.034;5.262;2024-02-21T09:21:23;19.00;48.60
12839;DHT22;6486;51.034;5.262;2024-02-21T09:23:49;19.00;48.60
12839;DHT22;6486;51.034;5.262;2024-02-21T09:26:15;19.00;48.70
12839;DHT22;6486;51.034;5.262;2024-02-21T09:28:43;19.00;48.70
12839;DHT22;6486;51.034;5.262;2024-02-21T09:31:09;19.00;48.60
12839;DHT22;6486;51.034;5.262;2024-02-21T09:33:35;19.00;48.60
12839;DHT22;6486;51.034;5.262;2024-02-21T09:36:01;19.00;48.70
12839;DHT22;6486;51.034;5.262;2024-02-21T09:38:27;19.00;48.70
12839;DHT22;6486;51.034;5.262;2024-02-21T09:40:59;19.00;48.70
12839;DHT22;6486;51.034;5.262;2024-02-21T09:43:29;19.00;48.70
12839;DHT22;6486;51.034;5.262;2024-02-21T09:45:55;19.00;48.70
12839;DHT22;6486;51.034;5.262;2024-02-21T09:51:41;19.00;48.70
12839;DHT22;6486;51.034;5.262;2024-02-21T09:54:07;19.00;48.70
12839;DHT22;6486;51.034;5.262;2024-02-21T09:56:33;19.00;48.60
12839;DHT22;6486;51.034;5.262;2024-02-21T09:58:59;19.00;48.70
12839;DHT22;6486;51.034;5.262;2024-02-21T10:01:26;19.00;48.70
12839;DHT22;6486;51.034;5.262;2024-02-21T10:03:51;19.00;48.60
12839;DHT22;6486;51.034;5.262;2024-02-21T10:06:17;19.00;48.70
12839;DHT22;6486;51.034;5.262;2024-02-21T10:08:43;19.00;48.70
12839;DHT22;6486;51.034;5.262;2024-02-21T10:11:08;19.00;48.70
12839;DHT22;6486;51.034;5.262;2024-02-21T10:13:35;18.90;48.60
12839;DHT22;6486;51.034;5.262;2024-02-21T10:16:10;19.00;48.60
12839;DHT22;6486;51.034;5.262;2024-02-21T10:18:35;19.00;48.60
12839;DHT22;6486;51.034;5.262;2024-02-21T10:21:05;19.00;48.60
12839;DHT22;6486;51.034;5.262;2024-02-21T10:24:01;18.90;48.60
12839;DHT22;6486;51.034;5.262;2024-02-21T10:26:27;18.90;48.60
12839;DHT22;6486;51.034;5.262;2024-02-21T10:28:52;19.00;48.60
12839;DHT22;6486;51.034;5.262;2024-02-21T10:31:26;18.90;48.60
12839;DHT22;6486;51.034;5.262;2024-02-21T10:34:01;18.90;48.60
12839;DHT22;6486;51.034;5.262;2024-02-21T10:36:31;18.90;48.60
12839;DHT22;6486;51.034;5.262;2024-02-21T10:38:57;18.90;48.60
12839;DHT22;6486;51.034;5.262;2024-02-21T10:41:23;18.90;48.60
12839;DHT22;6486;51.034;5.262;2024-02-21T10:43:53;18.90;48.60
12839;DHT22;6486;51.034;5.262;2024-02-21T10:46:21;18.90;48.60
12839;DHT22;6486;51.034;5.262;2024-02-21T10:48:48;18.90;48.60
12839;DHT22;6486;51.034;5.262;2024-02-21T10:51:18;18.90;48.60
12839;DHT22;6486;51.034;5.262;2024-02-21T10:54:17;18.90;48.60
12839;DHT22;6486;51.034;5.262;2024-02-21T10:56:49;18.90;48.60
12839;DHT22;6486;51.034;5.262;2024-02-21T10:59:17;18.90;48.60
12839;DHT22;6486;51.034;5.262;2024-02-21T11:01:43;18.90;48.60
12839;DHT22;6486;51.034;5.262;2024-02-21T11:04:10;18.90;48.60
12839;DHT22;6486;51.034;5.262;2024-02-21T11:06:38;18.90;48.60
12839;DHT22;6486;51.034;5.262;2024-02-21T11:09:10;18.90;49.20
12839;DHT22;6486;51.034;5.262;2024-02-21T11:11:39;18.90;48.60
12839;DHT22;6486;51.034;5.262;2024-02-21T11:14:26;18.90;48.60
12839;DHT22;6486;51.034;5.262;2024-02-21T11:16:52;18.90;48.60
12839;DHT22;6486;51.034;5.262;2024-02-21T11:19:26;18.90;48.60
12839;DHT22;6486;51.034;5.262;2024-02-21T11:21:54;18.90;48.70
12839;DHT22;6486;51.034;5.262;2024-02-21T11:26:54;18.90;48.60
12839;DHT22;6486;51.034;5.262;2024-02-21T11:29:24;18.90;48.60
12839;DHT22;6486;51.034;5.262;2024-02-21T11:31:54;18.80;48.50
12839;DHT22;6486;51.034;5.262;2024-02-21T11:34:20;18.90;49.30
12839;DHT22;6486;51.034;5.262;2024-02-21T11:36:50;18.90;48.60
12839;DHT22;6486;51.034;5.262;2024-02-21T11:39:24;18.90;48.60
12839;DHT22;6486;51.034;5.262;2024-02-21T11:42:06;18.90;48.60
12839;DHT22;6486;51.034;5.262;2024-02-21T11:44:37;18.90;48.60
12839;DHT22;6486;51.034;5.262;2024-02-21T11:47:08;18.80;48.50
12839;DHT22;6486;51.034;5.262;2024-02-21T11:49:38;18.80;48.50
12839;DHT22;6486;51.034;5.262;2024-02-21T11:52:07;18.80;48.50
12839;DHT22;6486;51.034;5.262;2024-02-21T11:54:33;18.80;49.10
12839;DHT22;6486;51.034;5.262;2024-02-21T11:57:00;18.80;48.50
12839;DHT22;6486;51.034;5.262;2024-02-21T11:59:26;18.80;49.20
12839;DHT22;6486;51.034;5.262;2024-02-21T12:01:55;18.80;48.50
12839;DHT22;6486;51.034;5.262;2024-02-21T12:04:22;18.80;48.50
12839;DHT22;6486;51.034;5.262;2024-02-21T12:06:49;18.80;48.60
12839;DHT22;6486;51.034;5.262;2024-02-21T12:09:18;18.80;48.50
12839;DHT22;6486;51.034;5.262;2024-02-21T12:11:44;18.80;48.50
12839;DHT22;6486;51.034;5.262;2024-02-21T12:14:15;18.80;48.50
12839;DHT22;6486;51.034;5.262;2024-02-21T12:16:41;18.80;48.50
12839;DHT22;6486;51.034;5.262;2024-02-21T12:19:07;18.80;48.50
12839;DHT22;6486;51.034;5.262;2024-02-21T12:21:35;18.80;48.50
12839;DHT22;6486;51.034;5.262;2024-02-21T12:24:23;18.80;48.50
12839;DHT22;6486;51.034;5.262;2024-02-21T12:26:53;18.80;48.60
12839;DHT22;6486;51.034;5.262;2024-02-21T12:29:22;18.80;48.60
12839;DHT22;6486;51.034;5.262;2024-02-21T12:31:48;18.80;48.60
12839;DHT22;6486;51.034;5.262;2024-02-21T12:34:15;18.80;48.60
12839;DHT22;6486;51.034;5.262;2024-02-21T12:36:45;18.80;48.60
12839;DHT22;6486;51.034;5.262;2024-02-21T12:39:12;18.80;48.60
12839;DHT22;6486;51.034;5.262;2024-02-21T12:41:39;18.80;48.50
12839;DHT22;6486;51.034;5.262;2024-02-21T12:44:06;18.80;48.60
12839;DHT22;6486;51.034;5.262;2024-02-21T12:46:33;18.80;48.60
12839;DHT22;6486;51.034;5.262;2024-02-21T12:48:59;18.80;48.50
12839;DHT22;6486;51.034;5.262;2024-02-21T12:51:25;18.80;48.60
12839;DHT22;6486;51.034;5.262;2024-02-21T12:53:51;18.80;48.50
12839;DHT22;6486;51.034;5.262;2024-02-21T12:56:17;18.80;48.50
12839;DHT22;6486;51.034;5.262;2024-02-21T12:58:42;18.80;48.50
12839;DHT22;6486;51.034;5.262;2024-02-21T13:01:08;18.80;48.50
12839;DHT22;6486;51.034;5.262;2024-02-21T13:03:34;18.80;48.50
12839;DHT22;6486;51.034;5.262;2024-02-21T13:06:00;18.80;48.60
12839;DHT22;6486;51.034;5.262;2024-02-21T13:08:25;18.80;48.60
12839;DHT22;6486;51.034;5.262;2024-02-21T13:10:51;18.80;48.60
12839;DHT22;6486;51.034;5.262;2024-02-21T13:13:17;18.80;48.60
12839;DHT22;6486;51.034;5.262;2024-02-21T13:15:43;18.80;48.50
12839;DHT22;6486;51.034;5.262;2024-02-21T13:18:09;18.80;48.50
12839;DHT22;6486;51.034;5.262;2024-02-21T13:20:36;18.80;48.50
12839;DHT22;6486;51.034;5.262;2024-02-21T13:23:02;18.70;48.40
12839;DHT22;6486;51.034;5.262;2024-02-21T13:25:28;18.80;48.60
12839;DHT22;6486;51.034;5.262;2024-02-21T13:27:53;18.80;48.50
12839;DHT22;6486;51.034;5.262;2024-02-21T13:30:19;18.80;48.50
12839;DHT22;6486;51.034;5.262;2024-02-21T13:32:45;18.80;48.50
12839;DHT22;6486;51.034;5.262;2024-02-21T13:35:14;18.80;48.50
12839;DHT22;6486;51.034;5.262;2024-02-21T13:37:40;18.80;48.50
12839;DHT22;6486;51.034;5.262;2024-02-21T13:40:07;18.80;48.50
12839;DHT22;6486;51.034;5.262;2024-02-21T13:42:35;18.80;48.50
12839;DHT22;6486;51.034;5.262;2024-02-21T13:45:01;18.80;48.50
12839;DHT22;6486;51.034;5.262;2024-02-21T13:47:27;18.80;48.50
12839;DHT22;6486;51.034;5.262;2024-02-21T13:49:53;18.80;48.50
12839;DHT22;6486;51.034;5.262;2024-02-21T13:52:18;18.80;48.40
12839;DHT22;6486;51.034;5.262;2024-02-21T13:54:48;18.80;48.50
12839;DHT22;6486;51.034;5.262;2024-02-21T13:57:13;18.80;48.50
12839;DHT22;6486;51.034;5.262;2024-02-21T13:59:40;18.80;48.40
12839;DHT22;6486;51.034;5.262;2024-02-21T14:02:06;18.80;48.40
12839;DHT22;6486;51.034;5.262;2024-02-21T14:04:34;18.90;48.50
12839;DHT22;6486;51.034;5.262;2024-02-21T14:07:00;18.90;48.50
12839;DHT22;6486;51.034;5.262;2024-02-21T14:09:26;18.90;48.50
12839;DHT22;6486;51.034;5.262;2024-02-21T14:11:52;18.90;48.50
12839;DHT22;6486;51.034;5.262;2024-02-21T14:14:19;18.90;48.50
12839;DHT22;6486;51.034;5.262;2024-02-21T14:16:44;18.90;48.50
12839;DHT22;6486;51.034;5.262;2024-02-21T14:19:13;18.90;48.50
12839;DHT22;6486;51.034;5.262;2024-02-21T14:21:39;18.90;48.50
12839;DHT22;6486;51.034;5.262;2024-02-21T14:24:05;18.90;48.50
12839;DHT22;6486;51.034;5.262;2024-02-21T14:26:31;18.90;48.50
12839;DHT22;6486;51.034;5.262;2024-02-21T14:28:57;18.90;48.50
12839;DHT22;6486;51.034;5.262;2024-02-21T14:31:23;18.90;48.50
12839;DHT22;6486;51.034;5.262;2024-02-21T14:33:50;18.90;48.50
12839;DHT22;6486;51.034;5.262;2024-02-21T14:36:16;18.90;48.50
12839;DHT22;6486;51.034;5.262;2024-02-21T14:38:42;18.90;48.50
12839;DHT22;6486;51.034;5.262;2024-02-21T14:41:09;18.90;48.50
12839;DHT22;6486;51.034;5.262;2024-02-21T14:43:38;18.90;48.50
12839;DHT22;6486;51.034;5.262;2024-02-21T14:46:04;19.00;48.60
12839;DHT22;6486;51.034;5.262;2024-02-21T14:48:31;18.90;48.50
12839;DHT22;6486;51.034;5.262;2024-02-21T14:50:58;18.90;48.60
12839;DHT22;6486;51.034;5.262;2024-02-21T14:53:24;18.90;48.50
12839;DHT22;6486;51.034;5.262;2024-02-21T14:55:50;18.90;48.60
12839;DHT22;6486;51.034;5.262;2024-02-21T14:58:16;18.90;48.60
12839;DHT22;6486;51.034;5.262;2024-02-21T15:00:44;18.90;48.60
12839;DHT22;6486;51.034;5.262;2024-02-21T15:03:09;18.90;48.60
12839;DHT22;6486;51.034;5.262;2024-02-21T15:05:41;19.00;48.70
12839;DHT22;6486;51.034;5.262;2024-02-21T15:08:07;19.00;48.70
12839;DHT22;6486;51.034;5.262;2024-02-21T15:10:35;19.00;48.70
12839;DHT22;6486;51.034;5.262;2024-02-21T15:13:01;18.90;48.60
12839;DHT22;6486;51.034;5.262;2024-02-21T15:15:26;19.00;48.70
12839;DHT22;6486;51.034;5.262;2024-02-21T15:17:52;19.00;48.70
12839;DHT22;6486;51.034;5.262;2024-02-21T15:20:18;19.00;48.70
12839;DHT22;6486;51.034;5.262;2024-02-21T15:22:43;19.00;48.70
12839;DHT22;6486;51.034;5.262;2024-02-21T15:25:09;19.00;48.70
12839;DHT22;6486;51.034;5.262;2024-02-21T15:27:44;19.00;48.70
12839;DHT22;6486;51.034;5.262;2024-02-21T15:30:11;19.00;48.80
12839;DHT22;6486;51.034;5.262;2024-02-21T15:32:37;19.00;48.70
12839;DHT22;6486;51.034;5.262;2024-02-21T15:35:06;19.00;48.80
12839;DHT22;6486;51.034;5.262;2024-02-21T15:37:33;19.00;48.80
12839;DHT22;6486;51.034;5.262;2024-02-21T15:39:59;19.00;48.80
12839;DHT22;6486;51.034;5.262;2024-02-21T15:42:24;19.00;48.80
12839;DHT22;6486;51.034;5.262;2024-02-21T15:44:50;19.00;48.80
12839;DHT22;6486;51.034;5.262;2024-02-21T15:47:16;19.00;49.50